Time;durP1;ratioP1;P1;durP2;ratioP2;P2;SDS_P1;SDS_P2;PMS_P1;PMS_P2;Temp;Humidity;BMP_temperature;BMP_pressure;BME280_temperature;BME280_humidity;BME280_pressure;Samples;Min_cycle;Max_cycle;Signal;HPM_P1;HPM_P2
2021/06/14 00:01:22;;;;;;;1.88;1.17;;;24.80;57.40;;;;;;5038191;28;20045;-54
2021/06/14 00:03:49;;;;;;;1.20;0.98;;;24.80;57.40;;;;;;5052134;28;20073;-54
2021/06/14 00:06:17;;;;;;;1.45;0.93;;;24.80;57.40;;;;;;5052567;28;20114;-54
2021/06/14 00:08:44;;;;;;;1.10;0.70;;;24.70;57.30;;;;;;5048286;28;20049;-54
2021/06/14 00:11:12;;;;;;;1.48;1.05;;;24.70;57.40;;;;;;5035846;28;20053;-52
2021/06/14 00:13:40;;;;;;;1.35;0.95;;;24.70;57.40;;;;;;5035865;28;20056;-54
2021/06/14 00:16:09;;;;;;;1.13;0.80;;;24.70;57.40;;;;;;5051704;28;20048;-53
2021/06/14 00:18:38;;;;;;;1.85;0.90;;;24.70;57.40;;;;;;5052411;28;20193;-53
2021/06/14 00:21:09;;;;;;;0.88;0.80;;;24.70;57.40;;;;;;5051048;28;20132;-52
2021/06/14 00:23:38;;;;;;;1.30;1.10;;;24.70;57.40;;;;;;5049171;28;20055;-54
2021/06/14 00:26:09;;;;;;;1.40;1.02;;;24.70;57.40;;;;;;5052017;28;20049;-53
2021/06/14 00:28:38;;;;;;;1.55;1.00;;;24.70;57.40;;;;;;5037354;28;20046;-52
2021/06/14 00:31:08;;;;;;;1.00;0.90;;;24.70;57.40;;;;;;5050504;28;20053;-52
2021/06/14 00:33:37;;;;;;;1.10;1.00;;;24.70;57.40;;;;;;5052004;28;20132;-49
2021/06/14 00:36:06;;;;;;;1.10;0.80;;;24.70;57.40;;;;;;5038375;28;20054;-52
2021/06/14 00:38:34;;;;;;;2.25;0.90;;;24.70;57.50;;;;;;5049550;28;20572;-49
2021/06/14 00:41:03;;;;;;;1.25;0.90;;;24.70;57.50;;;;;;5051634;28;20048;-52
2021/06/14 00:43:32;;;;;;;1.05;0.95;;;24.70;58.00;;;;;;5042898;28;20501;-56
2021/06/14 00:45:59;;;;;;;2.25;1.00;;;24.70;57.50;;;;;;5047884;28;20060;-54
2021/06/14 00:48:27;;;;;;;1.52;0.90;;;24.70;57.40;;;;;;5051736;28;20041;-52
2021/06/14 00:51:05;;;;;;;1.77;1.10;;;24.70;57.50;;;;;;5051709;28;20084;-54
2021/06/14 00:53:38;;;;;;;1.60;1.10;;;24.70;57.50;;;;;;5042466;28;20100;-54
2021/06/14 00:56:09;;;;;;;1.17;0.90;;;24.70;57.50;;;;;;5036542;28;20490;-51
2021/06/14 00:58:38;;;;;;;1.25;0.90;;;24.70;57.50;;;;;;5045119;28;20057;-53
2021/06/14 01:01:07;;;;;;;1.67;1.02;;;24.70;57.50;;;;;;5052843;28;20041;-53
2021/06/14 01:03:34;;;;;;;1.15;0.93;;;24.70;57.50;;;;;;5051672;28;20045;-53
2021/06/14 01:06:07;;;;;;;0.95;0.90;;;24.70;57.50;;;;;;5051931;28;20443;-54
2021/06/14 01:08:37;;;;;;;1.00;0.90;;;24.70;57.50;;;;;;5051451;28;20049;-55
2021/06/14 01:11:26;;;;;;;1.30;0.95;;;24.70;57.50;;;;;;5051566;28;20497;-51
2021/06/14 01:14:26;;;;;;;1.00;0.90;;;24.70;57.60;;;;;;5043656;28;20049;-54
2021/06/14 01:17:19;;;;;;;1.20;0.98;;;24.60;57.50;;;;;;5048053;28;20049;-53
2021/06/14 01:20:22;;;;;;;1.20;1.00;;;24.70;57.60;;;;;;5044825;28;20049;-53
2021/06/14 01:23:08;;;;;;;1.20;1.00;;;24.60;57.50;;;;;;5050789;28;20127;-51
2021/06/14 01:25:41;;;;;;;1.95;1.00;;;24.60;57.50;;;;;;5033777;28;20561;-52
2021/06/14 01:28:11;;;;;;;1.38;1.00;;;24.60;57.50;;;;;;5033414;28;20053;-52
2021/06/14 01:30:39;;;;;;;1.75;1.13;;;24.70;57.60;;;;;;5068199;28;20094;-50
2021/06/14 01:33:09;;;;;;;1.67;0.90;;;24.70;57.60;;;;;;5033633;28;20045;-50
2021/06/14 01:35:37;;;;;;;1.52;0.98;;;24.70;57.60;;;;;;5036352;28;20045;-48
2021/06/14 01:38:06;;;;;;;1.65;0.70;;;24.60;57.60;;;;;;5055155;28;20049;-50
2021/06/14 01:40:36;;;;;;;0.70;0.70;;;24.60;57.60;;;;;;5056257;28;20060;-48
2021/06/14 01:43:10;;;;;;;1.40;1.10;;;24.70;57.60;;;;;;5056002;28;20489;-49
2021/06/14 01:45:46;;;;;;;1.60;0.93;;;24.60;57.60;;;;;;5054291;28;20049;-49
2021/06/14 01:48:16;;;;;;;2.72;0.80;;;24.60;57.60;;;;;;5040205;28;20052;-49
2021/06/14 01:50:43;;;;;;;1.00;0.90;;;24.60;57.60;;;;;;5039456;28;20060;-49
2021/06/14 01:53:11;;;;;;;1.30;0.90;;;24.60;57.60;;;;;;5053858;28;20061;-52
2021/06/14 01:55:40;;;;;;;1.60;1.10;;;24.60;57.60;;;;;;5071003;28;20064;-51
2021/06/14 01:58:08;;;;;;;1.15;0.82;;;24.60;57.60;;;;;;5054379;28;20044;-52
2021/06/14 02:00:40;;;;;;;1.50;1.10;;;24.60;57.60;;;;;;5052780;28;20045;-48
2021/06/14 02:03:09;;;;;;;0.88;0.80;;;24.60;57.60;;;;;;5054518;28;20049;-49
2021/06/14 02:05:37;;;;;;;0.85;0.80;;;24.60;57.60;;;;;;5055902;28;20045;-48
2021/06/14 02:08:08;;;;;;;1.00;0.90;;;24.60;57.60;;;;;;5054354;28;20044;-51
2021/06/14 02:10:37;;;;;;;1.73;0.90;;;24.60;57.60;;;;;;5054430;28;20052;-49
2021/06/14 02:13:05;;;;;;;1.33;0.90;;;24.60;57.60;;;;;;5055475;28;20063;-48
2021/06/14 02:15:33;;;;;;;1.75;0.85;;;24.60;57.60;;;;;;5053153;28;20049;-48
2021/06/14 02:18:02;;;;;;;1.13;0.93;;;24.60;57.60;;;;;;5054497;28;20128;-47
2021/06/14 02:20:30;;;;;;;1.38;1.10;;;24.60;57.70;;;;;;5055676;28;20053;-48
2021/06/14 02:22:57;;;;;;;1.67;1.20;;;24.60;57.60;;;;;;5049697;28;20041;-49
2021/06/14 02:25:25;;;;;;;0.88;0.80;;;24.60;57.60;;;;;;5039165;28;20457;-49
2021/06/14 02:27:52;;;;;;;1.27;1.10;;;24.60;57.60;;;;;;5042030;28;20070;-49
2021/06/14 02:30:24;;;;;;;1.35;1.10;;;24.60;57.70;;;;;;5066405;28;20470;-48
2021/06/14 02:32:53;;;;;;;1.30;0.90;;;24.60;57.70;;;;;;5037995;28;20073;-47
2021/06/14 02:35:23;;;;;;;0.85;0.70;;;24.60;57.70;;;;;;5041339;28;20378;-49
2021/06/14 02:38:02;;;;;;;1.65;1.10;;;24.60;57.70;;;;;;5052328;28;20103;-47
2021/06/14 02:40:32;;;;;;;1.10;1.00;;;24.60;57.70;;;;;;5039875;28;20044;-50
2021/06/14 02:43:02;;;;;;;0.90;0.77;;;24.60;57.70;;;;;;5052117;28;20081;-49
2021/06/14 02:45:30;;;;;;;1.50;0.93;;;24.60;57.70;;;;;;5045875;28;20044;-51
2021/06/14 02:47:59;;;;;;;1.00;0.82;;;24.60;58.30;;;;;;5038294;28;20037;-47
2021/06/14 02:50:29;;;;;;;1.02;0.80;;;24.60;57.80;;;;;;5053996;28;20047;-47
2021/06/14 02:52:59;;;;;;;1.00;0.90;;;24.60;57.70;;;;;;5036662;28;20087;-51
2021/06/14 02:55:31;;;;;;;0.80;0.75;;;24.60;57.70;;;;;;5053669;28;20068;-48
2021/06/14 02:58:00;;;;;;;1.35;1.02;;;24.60;57.80;;;;;;5053611;28;20524;-47
2021/06/14 03:00:32;;;;;;;1.15;0.90;;;24.60;57.80;;;;;;5052855;28;20044;-50
2021/06/14 03:03:04;;;;;;;1.95;1.00;;;24.60;58.00;;;;;;5052125;28;20087;-49
2021/06/14 03:05:32;;;;;;;1.02;0.93;;;24.60;57.80;;;;;;5035441;28;20053;-49
2021/06/14 03:08:01;;;;;;;0.90;0.80;;;24.60;57.80;;;;;;5045324;28;20041;-47
2021/06/14 03:10:31;;;;;;;0.77;0.75;;;24.60;57.80;;;;;;5036255;28;20045;-50
2021/06/14 03:13:01;;;;;;;1.17;0.70;;;24.60;57.80;;;;;;5052990;28;20475;-49
2021/06/14 03:15:30;;;;;;;1.10;0.98;;;24.60;57.80;;;;;;5037601;28;20543;-51
2021/06/14 03:17:59;;;;;;;1.00;0.88;;;24.60;57.80;;;;;;5037118;28;20107;-53
2021/06/14 03:20:28;;;;;;;1.20;0.80;;;24.60;57.80;;;;;;5050963;28;20045;-52
2021/06/14 03:22:55;;;;;;;0.75;0.75;;;24.60;57.80;;;;;;5053625;28;20049;-53
2021/06/14 03:25:22;;;;;;;2.15;1.00;;;24.60;57.80;;;;;;5052842;28;20124;-53
2021/06/14 03:27:51;;;;;;;1.65;1.00;;;24.60;57.70;;;;;;5041436;28;20214;-53
2021/06/14 03:30:23;;;;;;;1.30;0.95;;;24.60;57.70;;;;;;5036733;28;20045;-54
2021/06/14 03:32:52;;;;;;;0.90;0.80;;;24.60;57.70;;;;;;5037638;28;20550;-53
2021/06/14 03:35:21;;;;;;;1.00;0.90;;;24.60;58.30;;;;;;5047559;28;20068;-54
2021/06/14 03:37:49;;;;;;;1.30;1.13;;;24.60;57.70;;;;;;5043389;28;20493;-53
2021/06/14 03:40:17;;;;;;;0.98;0.93;;;24.60;57.70;;;;;;5047009;28;20076;-53
2021/06/14 03:42:45;;;;;;;1.58;0.93;;;24.60;57.60;;;;;;5052957;28;20074;-51
2021/06/14 03:45:12;;;;;;;1.17;1.00;;;24.60;57.60;;;;;;5053303;28;20069;-51
2021/06/14 03:47:40;;;;;;;1.70;1.15;;;24.60;57.60;;;;;;5053675;28;20045;-53
2021/06/14 03:50:09;;;;;;;1.02;0.77;;;24.60;57.60;;;;;;5047925;28;20052;-53
2021/06/14 03:52:40;;;;;;;1.05;0.88;;;24.60;57.60;;;;;;5042440;28;20049;-47
2021/06/14 03:55:10;;;;;;;0.93;0.90;;;24.60;57.60;;;;;;5052393;28;20455;-52
2021/06/14 03:57:38;;;;;;;1.20;1.10;;;24.60;57.50;;;;;;5052596;28;20048;-50
2021/06/14 04:00:10;;;;;;;1.75;0.95;;;24.70;57.60;;;;;;5052071;28;20049;-51
2021/06/14 04:02:37;;;;;;;0.95;0.70;;;24.70;57.60;;;;;;5052618;28;20091;-53
2021/06/14 04:05:06;;;;;;;1.10;0.95;;;24.70;57.60;;;;;;5049979;28;20379;-51
2021/06/14 04:07:33;;;;;;;1.13;1.02;;;24.70;57.50;;;;;;5037867;28;20037;-53
2021/06/14 04:10:01;;;;;;;1.02;0.90;;;24.70;57.50;;;;;;5051657;28;20447;-52
2021/06/14 04:12:30;;;;;;;1.08;0.80;;;24.70;57.40;;;;;;5036073;28;20056;-51
2021/06/14 04:14:58;;;;;;;1.13;1.00;;;24.70;57.40;;;;;;5035353;28;20041;-52
2021/06/14 04:17:27;;;;;;;0.90;0.80;;;24.80;57.40;;;;;;5052469;28;20048;-54
2021/06/14 04:19:56;;;;;;;1.00;0.90;;;24.80;57.40;;;;;;5051635;28;20079;-54
2021/06/14 04:22:23;;;;;;;1.30;0.82;;;24.80;57.20;;;;;;5052412;28;20049;-48
2021/06/14 04:24:51;;;;;;;1.02;0.93;;;24.90;57.20;;;;;;5034901;28;20506;-52
2021/06/14 04:27:18;;;;;;;0.80;0.80;;;24.90;57.10;;;;;;5035882;28;20053;-53
2021/06/14 04:29:45;;;;;;;2.55;1.00;;;24.90;57.10;;;;;;5050856;28;20045;-52
2021/06/14 04:32:13;;;;;;;1.55;1.02;;;24.90;57.10;;;;;;5053303;28;20123;-50
2021/06/14 04:34:40;;;;;;;1.60;1.00;;;24.90;57.00;;;;;;5053319;28;20048;-52
2021/06/14 04:37:07;;;;;;;1.17;0.90;;;24.90;56.90;;;;;;5051108;28;20072;-51
2021/06/14 04:39:35;;;;;;;0.95;0.80;;;25.00;57.00;;;;;;5052190;28;20463;-51
2021/06/14 04:42:03;;;;;;;1.13;0.80;;;25.00;56.90;;;;;;5051630;28;20089;-52
2021/06/14 04:44:32;;;;;;;1.27;1.00;;;25.00;56.80;;;;;;5045624;28;20044;-52
2021/06/14 04:46:59;;;;;;;1.20;1.08;;;25.10;56.70;;;;;;5051823;28;20103;-51
2021/06/14 04:49:26;;;;;;;0.82;0.70;;;25.10;56.60;;;;;;5051572;28;20136;-54
2021/06/14 04:51:54;;;;;;;0.98;0.88;;;25.20;56.60;;;;;;5044801;28;20052;-54
2021/06/14 04:54:21;;;;;;;1.30;0.90;;;25.20;56.40;;;;;;5036574;28;20096;-54
2021/06/14 04:56:48;;;;;;;1.65;1.10;;;25.20;56.30;;;;;;5036963;28;20111;-48
2021/06/14 04:59:16;;;;;;;1.42;0.98;;;25.30;56.30;;;;;;5040682;28;20127;-49
2021/06/14 05:01:43;;;;;;;1.55;1.00;;;25.30;56.20;;;;;;5051769;28;20404;-53
2021/06/14 05:04:11;;;;;;;1.00;0.85;;;25.30;56.10;;;;;;5067193;28;20049;-53
2021/06/14 05:06:38;;;;;;;1.08;0.90;;;25.30;56.00;;;;;;5050192;28;20041;-52
2021/06/14 05:09:05;;;;;;;0.95;0.85;;;25.40;56.00;;;;;;5047876;28;20041;-53
2021/06/14 05:11:33;;;;;;;1.42;0.95;;;25.40;56.50;;;;;;5039346;28;20447;-53
2021/06/14 05:14:00;;;;;;;1.65;0.80;;;25.40;55.80;;;;;;5040158;28;20463;-52
2021/06/14 05:16:27;;;;;;;1.48;0.80;;;25.40;55.70;;;;;;5038997;28;20405;-54
2021/06/14 05:18:54;;;;;;;1.17;0.90;;;25.50;55.80;;;;;;5038265;28;20111;-53
2021/06/14 05:21:22;;;;;;;1.50;0.95;;;25.50;55.70;;;;;;5037733;28;20049;-51
2021/06/14 05:23:49;;;;;;;1.02;0.80;;;25.40;55.60;;;;;;5039003;28;20047;-54
2021/06/14 05:26:17;;;;;;;1.00;0.77;;;25.40;55.60;;;;;;5053905;28;20118;-51
2021/06/14 05:28:44;;;;;;;1.90;1.10;;;25.50;55.60;;;;;;5055101;28;20049;-52
2021/06/14 05:31:11;;;;;;;1.45;1.08;;;25.50;55.60;;;;;;5070257;28;20041;-52
2021/06/14 05:33:39;;;;;;;1.10;0.90;;;25.50;55.60;;;;;;5058492;28;20065;-53
2021/06/14 05:36:06;;;;;;;1.45;1.08;;;25.50;55.60;;;;;;5055004;28;20080;-52
2021/06/14 05:38:34;;;;;;;1.40;1.00;;;25.50;55.60;;;;;;5055032;28;20045;-54
2021/06/14 05:41:01;;;;;;;1.73;0.90;;;25.50;55.60;;;;;;5044211;28;20099;-52
2021/06/14 05:43:29;;;;;;;0.70;0.70;;;25.50;55.60;;;;;;5048097;28;20121;-55
2021/06/14 05:45:56;;;;;;;1.00;0.90;;;25.50;55.50;;;;;;5054060;28;20132;-53
2021/06/14 05:48:24;;;;;;;1.17;0.85;;;25.50;55.50;;;;;;5048225;28;20041;-54
2021/06/14 05:50:51;;;;;;;1.45;1.10;;;25.50;55.50;;;;;;5038677;28;20056;-54
2021/06/14 05:53:21;;;;;;;1.63;0.98;;;25.50;55.50;;;;;;5044680;28;20401;-54
2021/06/14 05:55:49;;;;;;;1.08;0.88;;;25.50;55.50;;;;;;5049001;28;20412;-52
2021/06/14 05:58:16;;;;;;;1.05;0.95;;;25.50;55.50;;;;;;5042741;28;20049;-52
2021/06/14 06:00:44;;;;;;;1.20;0.93;;;25.50;55.50;;;;;;5052021;28;20041;-53
2021/06/14 06:03:12;;;;;;;1.45;1.00;;;25.50;55.50;;;;;;5042150;28;20048;-50
2021/06/14 06:05:39;;;;;;;1.45;1.00;;;25.50;55.50;;;;;;5055885;28;20037;-54
2021/06/14 06:08:06;;;;;;;1.42;1.05;;;25.50;55.50;;;;;;5054640;28;20067;-52
2021/06/14 06:10:33;;;;;;;0.80;0.80;;;25.50;55.50;;;;;;5039626;28;20494;-54
2021/06/14 06:13:01;;;;;;;1.27;1.10;;;25.50;55.50;;;;;;5054339;28;20079;-54
2021/06/14 06:15:28;;;;;;;1.08;0.80;;;25.50;55.50;;;;;;5054373;28;20563;-53
2021/06/14 06:17:56;;;;;;;1.50;1.05;;;25.50;55.50;;;;;;5054923;28;20053;-54
2021/06/14 06:20:25;;;;;;;1.17;0.90;;;25.50;55.50;;;;;;5053479;28;20048;-50
2021/06/14 06:22:52;;;;;;;1.23;0.98;;;25.50;55.50;;;;;;5053135;28;20507;-54
2021/06/14 06:25:23;;;;;;;1.20;1.00;;;25.50;55.50;;;;;;5053463;28;20053;-53
2021/06/14 06:27:51;;;;;;;1.00;0.70;;;25.50;55.50;;;;;;5054480;28;20553;-52
2021/06/14 06:30:21;;;;;;;1.63;0.98;;;25.50;55.50;;;;;;5039212;28;20046;-53
2021/06/14 06:32:49;;;;;;;1.30;1.10;;;25.40;55.50;;;;;;5037595;28;20128;-54
2021/06/14 06:35:17;;;;;;;1.30;0.90;;;25.50;55.50;;;;;;5052308;28;20550;-53
2021/06/14 06:37:45;;;;;;;1.00;0.90;;;25.50;55.50;;;;;;5040305;28;20077;-54
2021/06/14 06:40:13;;;;;;;1.13;0.75;;;25.40;55.50;;;;;;5050633;28;20459;-54
2021/06/14 06:42:41;;;;;;;0.82;0.80;;;25.50;55.50;;;;;;5049470;28;20048;-54
2021/06/14 06:45:10;;;;;;;1.10;0.90;;;25.40;55.50;;;;;;5052395;28;20128;-53
2021/06/14 06:47:37;;;;;;;1.45;1.13;;;25.40;55.50;;;;;;5054820;28;20081;-54
2021/06/14 06:50:06;;;;;;;2.08;1.20;;;25.40;55.50;;;;;;5054926;28;20182;-52
2021/06/14 06:52:35;;;;;;;1.52;1.10;;;25.40;55.50;;;;;;5069170;28;20053;-52
2021/06/14 06:55:06;;;;;;;1.58;1.10;;;25.40;55.50;;;;;;5054503;28;20444;-54
2021/06/14 06:57:34;;;;;;;0.95;0.80;;;25.40;55.50;;;;;;5053660;28;20413;-54
2021/06/14 07:00:01;;;;;;;2.08;1.10;;;25.40;55.50;;;;;;5052059;28;20049;-54
2021/06/14 07:02:28;;;;;;;1.92;1.20;;;25.40;55.50;;;;;;5047352;28;20095;-52
2021/06/14 07:04:56;;;;;;;1.63;1.00;;;25.40;55.50;;;;;;5041366;28;20037;-50
2021/06/14 07:07:24;;;;;;;1.33;1.00;;;25.40;55.50;;;;;;5053120;28;20077;-52
2021/06/14 07:09:52;;;;;;;2.17;1.10;;;25.40;55.50;;;;;;5050178;28;20045;-52
2021/06/14 07:12:19;;;;;;;1.10;1.00;;;25.40;55.50;;;;;;5039544;28;20045;-53
2021/06/14 07:14:46;;;;;;;1.80;1.05;;;25.40;55.50;;;;;;5051797;28;20131;-52
2021/06/14 07:17:14;;;;;;;1.25;1.08;;;25.40;55.50;;;;;;5036662;28;20128;-52
2021/06/14 07:19:41;;;;;;;1.10;0.90;;;25.40;55.50;;;;;;5036782;28;20049;-53
2021/06/14 07:22:08;;;;;;;2.42;1.17;;;25.40;55.50;;;;;;5053076;28;20095;-55
2021/06/14 07:24:35;;;;;;;1.10;0.90;;;25.40;55.50;;;;;;5036530;28;20132;-54
2021/06/14 07:27:03;;;;;;;1.23;1.00;;;25.40;55.50;;;;;;5035360;28;20096;-55
2021/06/14 07:29:30;;;;;;;1.52;0.98;;;25.40;55.50;;;;;;5052927;28;20118;-54
2021/06/14 07:31:58;;;;;;;2.00;1.27;;;25.40;55.50;;;;;;5067047;28;20102;-52
2021/06/14 07:34:26;;;;;;;1.45;1.10;;;25.40;55.50;;;;;;5052758;28;20052;-53
2021/06/14 07:36:54;;;;;;;2.55;1.15;;;25.40;55.50;;;;;;5052968;28;20045;-53
2021/06/14 07:39:21;;;;;;;1.73;1.10;;;25.40;55.40;;;;;;5038719;28;20103;-52
2021/06/14 07:41:48;;;;;;;1.90;1.17;;;25.40;55.40;;;;;;5037533;28;20055;-56
2021/06/14 07:44:16;;;;;;;1.70;1.15;;;25.40;55.40;;;;;;5045156;28;20566;-53
2021/06/14 07:46:43;;;;;;;1.23;0.90;;;25.40;55.40;;;;;;5047398;28;20045;-54
2021/06/14 07:49:11;;;;;;;2.17;1.30;;;25.40;55.40;;;;;;5052553;28;20060;-54
2021/06/14 07:51:38;;;;;;;2.30;1.10;;;25.40;56.00;;;;;;5052746;28;20049;-52
2021/06/14 07:54:05;;;;;;;1.20;1.10;;;25.40;55.40;;;;;;5052197;28;20140;-52
2021/06/14 07:56:33;;;;;;;0.90;0.80;;;25.40;55.40;;;;;;5046349;28;20045;-51
2021/06/14 07:59:00;;;;;;;1.13;0.90;;;25.40;55.40;;;;;;5043405;28;20547;-52
2021/06/14 08:01:27;;;;;;;2.25;1.02;;;25.40;55.40;;;;;;5047897;28;20148;-53
2021/06/14 08:03:55;;;;;;;1.38;1.00;;;25.40;55.40;;;;;;5040469;28;20130;-54
2021/06/14 08:06:22;;;;;;;2.22;1.20;;;25.40;55.40;;;;;;5052635;28;20045;-52
2021/06/14 08:08:49;;;;;;;1.70;1.13;;;25.40;55.90;;;;;;5052411;28;20049;-52
2021/06/14 08:11:18;;;;;;;1.48;1.08;;;25.50;55.40;;;;;;5050086;28;20128;-54
2021/06/14 08:13:46;;;;;;;2.00;0.90;;;25.50;55.40;;;;;;5036932;28;20102;-54
2021/06/14 08:16:26;;;;;;;1.75;1.02;;;25.40;55.30;;;;;;5050174;28;20049;-53
2021/06/14 08:19:08;;;;;;;1.10;1.00;;;25.40;55.30;;;;;;5037439;28;20049;-53
2021/06/14 08:21:48;;;;;;;1.77;0.90;;;25.40;55.30;;;;;;5050081;28;20044;-50
2021/06/14 08:27:01;;;;;;;1.35;1.05;;;25.40;55.30;;;;;;5048505;28;20080;-51
2021/06/14 08:29:28;;;;;;;1.40;1.10;;;25.40;55.30;;;;;;5058430;28;20044;-51
2021/06/14 08:31:56;;;;;;;2.17;1.30;;;25.50;55.30;;;;;;5065424;28;20048;-56
2021/06/14 08:34:26;;;;;;;1.50;1.27;;;25.50;55.30;;;;;;5053176;28;20094;-52
2021/06/14 08:36:53;;;;;;;1.27;0.95;;;25.50;55.40;;;;;;5053597;28;20041;-54
2021/06/14 08:39:20;;;;;;;1.83;1.17;;;25.50;55.30;;;;;;5053184;28;20143;-52
2021/06/14 08:41:48;;;;;;;1.65;1.27;;;25.50;55.30;;;;;;5051972;28;20041;-52
2021/06/14 08:44:15;;;;;;;1.45;1.10;;;25.50;55.90;;;;;;5034062;28;20168;-52
2021/06/14 08:46:43;;;;;;;1.15;0.93;;;25.50;55.30;;;;;;5055372;28;20045;-53
2021/06/14 08:49:14;;;;;;;1.48;1.02;;;25.50;55.30;;;;;;5056206;28;20175;-51
2021/06/14 08:51:41;;;;;;;1.85;1.10;;;25.50;55.30;;;;;;5055986;28;20132;-56
2021/06/14 08:54:08;;;;;;;1.90;1.25;;;25.50;55.20;;;;;;5039576;28;20111;-52
2021/06/14 08:56:35;;;;;;;2.10;1.00;;;25.50;55.30;;;;;;5055410;28;20416;-56
2021/06/14 08:59:03;;;;;;;1.17;1.05;;;25.50;55.30;;;;;;5046559;28;20065;-52
2021/06/14 09:01:31;;;;;;;0.98;0.90;;;25.50;55.30;;;;;;5059576;28;20045;-50
2021/06/14 09:03:58;;;;;;;1.65;0.95;;;25.50;55.20;;;;;;5069576;28;20056;-50
2021/06/14 09:06:26;;;;;;;1.77;1.15;;;25.50;55.20;;;;;;5045230;28;20103;-50
2021/06/14 09:09:02;;;;;;;1.10;0.85;;;25.50;55.20;;;;;;5051489;28;20497;-49
2021/06/14 09:11:30;;;;;;;1.70;1.10;;;25.50;55.20;;;;;;5055898;28;20071;-48
2021/06/14 09:13:59;;;;;;;1.27;1.00;;;25.50;55.20;;;;;;5043783;28;20152;-50
2021/06/14 09:16:31;;;;;;;3.15;1.13;;;25.50;55.20;;;;;;5039279;28;20417;-49
2021/06/14 09:18:59;;;;;;;1.35;0.80;;;25.50;55.20;;;;;;5039383;28;20052;-53
2021/06/14 09:21:28;;;;;;;1.60;1.05;;;25.50;55.20;;;;;;5050244;28;20044;-52
2021/06/14 09:24:07;;;;;;;1.67;1.02;;;25.50;55.20;;;;;;5055072;28;20103;-53
2021/06/14 09:26:41;;;;;;;1.15;1.00;;;25.50;55.20;;;;;;5056666;28;20382;-53
2021/06/14 09:29:14;;;;;;;1.15;0.82;;;25.50;55.20;;;;;;5045743;28;20132;-49
2021/06/14 09:31:48;;;;;;;1.50;0.90;;;25.50;55.20;;;;;;5053341;28;20045;-58
2021/06/14 09:34:17;;;;;;;2.25;1.17;;;25.50;55.20;;;;;;5065753;28;20060;-54
2021/06/14 09:36:58;;;;;;;1.08;0.90;;;25.50;55.20;;;;;;5060156;28;20049;-49
2021/06/14 09:39:26;;;;;;;2.72;1.60;;;25.60;55.20;;;;;;5054108;28;20102;-59
2021/06/14 09:41:53;;;;;;;8.77;2.28;;;25.60;53.60;;;;;;5051543;28;20053;-59
2021/06/14 09:44:32;;;;;;;5.28;2.00;;;25.50;48.90;;;;;;5052392;28;20114;-59
2021/06/14 09:47:05;;;;;;;8.85;2.25;;;25.30;47.90;;;;;;5053316;28;20077;-59
2021/06/14 09:49:33;;;;;;;6.30;2.28;;;25.40;47.10;;;;;;5052500;28;20063;-58
2021/06/14 09:52:02;;;;;;;7.38;2.60;;;25.30;46.00;;;;;;5045630;28;20481;-59
2021/06/14 09:54:31;;;;;;;8.80;2.63;;;25.30;46.50;;;;;;5052963;28;20389;-57
2021/06/14 09:57:03;;;;;;;9.07;3.10;;;25.30;45.20;;;;;;5046411;28;20046;-58
2021/06/14 09:59:45;;;;;;;8.60;2.67;;;25.10;42.20;;;;;;5037439;28;20115;-58
2021/06/14 10:02:17;;;;;;;12.38;2.92;;;25.00;41.90;;;;;;5045262;28;20045;-57
2021/06/14 10:04:52;;;;;;;6.88;2.50;;;24.90;42.10;;;;;;5054212;28;20098;-58
2021/06/14 10:07:22;;;;;;;11.85;2.95;;;24.80;42.10;;;;;;5053907;28;20489;-58
2021/06/14 10:09:52;;;;;;;7.53;2.80;;;24.80;42.30;;;;;;5053866;28;20459;-58
2021/06/14 10:12:21;;;;;;;6.07;2.53;;;24.80;41.90;;;;;;5055087;28;20378;-58
2021/06/14 10:14:55;;;;;;;6.53;2.58;;;24.70;41.70;;;;;;5049230;28;20485;-56
2021/06/14 10:17:33;;;;;;;10.77;3.20;;;24.70;41.70;;;;;;5037539;28;20041;-57
2021/06/14 10:20:10;;;;;;;7.22;3.05;;;24.60;41.70;;;;;;5037269;28;20468;-56
2021/06/14 10:22:38;;;;;;;7.72;2.70;;;24.50;41.20;;;;;;5045494;28;20099;-58
2021/06/14 10:25:08;;;;;;;7.72;3.08;;;24.50;40.80;;;;;;5047658;28;20041;-59
2021/06/14 10:27:35;;;;;;;8.95;3.10;;;24.40;41.10;;;;;;5045042;28;20056;-59
2021/06/14 10:30:06;;;;;;;7.35;3.00;;;24.30;41.10;;;;;;5043143;28;20103;-58
2021/06/14 10:32:36;;;;;;;10.35;3.40;;;24.30;41.70;;;;;;5040662;28;20091;-57
2021/06/14 10:35:06;;;;;;;9.18;3.22;;;24.30;41.00;;;;;;5052054;28;20472;-59
2021/06/14 10:37:41;;;;;;;5.68;2.72;;;24.20;41.60;;;;;;5050784;28;20483;-60
2021/06/14 10:40:09;;;;;;;7.53;2.45;;;24.20;42.40;;;;;;5038663;28;20044;-60
2021/06/14 10:42:39;;;;;;;7.18;2.78;;;24.20;41.90;;;;;;5053442;28;20037;-58
2021/06/14 10:45:11;;;;;;;8.75;3.53;;;24.20;41.90;;;;;;5051244;28;20049;-56
2021/06/14 10:47:45;;;;;;;11.88;2.85;;;24.20;41.10;;;;;;5038367;28;20128;-58
2021/06/14 10:50:15;;;;;;;7.60;2.72;;;24.20;40.70;;;;;;5046627;28;20499;-58
2021/06/14 10:52:55;;;;;;;7.82;2.60;;;24.20;40.10;;;;;;5025727;28;20043;-60
2021/06/14 10:55:42;;;;;;;9.63;3.03;;;24.10;40.60;;;;;;5039438;28;20053;-60
2021/06/14 10:58:17;;;;;;;5.15;1.98;;;24.10;41.20;;;;;;5044164;28;20053;-56
2021/06/14 11:01:35;;;;;;;7.38;2.70;;;24.10;40.70;;;;;;5034289;28;20053;-60
2021/06/14 11:04:25;;;;;;;8.13;2.40;;;24.10;41.00;;;;;;4999480;28;20041;-61
2021/06/14 11:07:01;;;;;;;6.50;2.58;;;24.10;41.10;;;;;;5005318;28;20046;-61
2021/06/14 11:09:52;;;;;;;7.60;2.67;;;24.10;40.40;;;;;;5004670;28;20050;-60
2021/06/14 11:12:29;;;;;;;6.82;2.72;;;24.10;41.10;;;;;;5020462;28;20049;-59
2021/06/14 11:15:08;;;;;;;7.57;2.45;;;24.10;40.60;;;;;;5004694;28;20053;-59
2021/06/14 11:17:38;;;;;;;8.63;2.58;;;24.10;40.60;;;;;;5003932;28;20054;-58
2021/06/14 11:20:13;;;;;;;6.47;2.70;;;24.10;41.50;;;;;;4991250;28;20124;-59
2021/06/14 11:22:47;;;;;;;8.48;2.65;;;24.10;40.60;;;;;;5005273;28;20042;-59
2021/06/14 11:25:23;;;;;;;7.57;3.03;;;24.10;40.60;;;;;;5006898;28;20561;-60
2021/06/14 11:28:05;;;;;;;6.55;3.00;;;24.10;40.40;;;;;;5012129;28;20056;-60
2021/06/14 11:30:36;;;;;;;8.10;2.60;;;24.10;40.90;;;;;;5007736;28;20045;-60
2021/06/14 11:33:10;;;;;;;7.38;2.65;;;24.10;40.00;;;;;;5006416;28;20466;-60
2021/06/14 11:35:48;;;;;;;8.65;2.50;;;24.10;39.90;;;;;;5005557;28;20092;-60
2021/06/14 11:38:22;;;;;;;7.47;2.58;;;24.10;39.00;;;;;;5023334;28;20096;-60
2021/06/14 11:41:00;;;;;;;6.45;2.63;;;24.10;38.90;;;;;;5039068;28;20099;-59
2021/06/14 11:43:27;;;;;;;8.20;2.95;;;24.10;39.60;;;;;;5029621;28;20131;-58
2021/06/14 11:45:57;;;;;;;7.47;2.80;;;24.10;39.70;;;;;;5046918;28;20090;-61
2021/06/14 11:48:32;;;;;;;6.32;2.55;;;24.10;40.10;;;;;;5032888;28;20046;-59
2021/06/14 11:51:21;;;;;;;4.55;2.13;;;24.10;39.70;;;;;;5046871;28;20052;-60
2021/06/14 11:53:58;;;;;;;8.80;3.00;;;24.10;40.20;;;;;;5053397;28;20049;-60
2021/06/14 11:56:36;;;;;;;5.65;2.30;;;24.10;39.00;;;;;;5049148;28;20426;-59
2021/06/14 11:59:04;;;;;;;;;;;24.10;39.50;;;;;;5044147;28;20057;-59
2021/06/14 12:01:33;;;;;;;8.23;2.65;;;24.20;39.70;;;;;;5045432;28;20335;-60
2021/06/14 12:04:04;;;;;;;9.57;2.53;;;24.20;39.70;;;;;;5048182;28;20136;-60
2021/06/14 12:06:46;;;;;;;6.75;2.38;;;24.20;39.60;;;;;;5040190;28;20382;-59
2021/06/14 12:09:15;;;;;;;7.20;2.28;;;24.20;39.30;;;;;;5032035;28;20049;-59
2021/06/14 12:11:43;;;;;;;6.40;2.50;;;24.20;38.90;;;;;;5050910;28;20045;-59
2021/06/14 12:14:12;;;;;;;9.40;3.08;;;24.20;37.50;;;;;;5032981;28;20053;-59
2021/06/14 12:16:41;;;;;;;6.07;2.30;;;24.20;37.90;;;;;;5063234;28;20623;-59
2021/06/14 12:19:08;;;;;;;6.63;1.90;;;24.20;37.80;;;;;;5051061;28;20053;-60
2021/06/14 12:21:36;;;;;;;4.90;2.05;;;24.20;37.30;;;;;;5019194;28;20049;-59
2021/06/14 12:24:17;;;;;;;5.85;2.15;;;24.20;36.80;;;;;;5043363;28;20532;-59
2021/06/14 12:26:45;;;;;;;3.90;1.77;;;24.20;36.30;;;;;;5034117;28;20060;-59
2021/06/14 12:29:22;;;;;;;12.35;2.40;;;24.30;36.50;;;;;;5034575;28;20045;-60
2021/06/14 12:32:05;;;;;;;6.05;2.15;;;24.30;37.10;;;;;;5042272;28;20045;-60
2021/06/14 12:34:37;;;;;;;7.15;2.40;;;24.30;36.70;;;;;;5031647;28;20049;-60
2021/06/14 12:37:09;;;;;;;6.63;2.10;;;24.30;36.60;;;;;;5031347;28;20049;-60
2021/06/14 12:39:38;;;;;;;11.45;1.88;;;24.30;36.50;;;;;;5030975;28;20049;-61
2021/06/14 12:42:26;;;;;;;5.40;2.40;;;24.30;35.90;;;;;;5038931;28;20084;-60
2021/06/14 12:45:00;;;;;;;6.05;1.90;;;24.30;36.10;;;;;;5035167;28;20048;-61
2021/06/14 12:47:29;;;;;;;7.18;2.05;;;24.40;36.10;;;;;;5039112;28;20056;-59
2021/06/14 12:49:58;;;;;;;4.30;1.92;;;24.40;35.20;;;;;;5035153;28;20067;-60
2021/06/14 12:52:28;;;;;;;4.97;2.03;;;24.40;35.10;;;;;;5042761;28;20123;-59
2021/06/14 12:54:56;;;;;;;7.03;2.05;;;24.40;34.70;;;;;;5046084;28;20049;-60
2021/06/14 12:57:35;;;;;;;8.77;2.13;;;24.40;35.60;;;;;;5044857;28;20556;-59
2021/06/14 13:00:11;;;;;;;9.13;2.42;;;24.40;36.40;;;;;;5044894;28;20520;-59
2021/06/14 13:02:39;;;;;;;7.15;2.22;;;24.50;36.90;;;;;;5056456;28;20059;-60
2021/06/14 13:05:14;;;;;;;8.98;2.13;;;24.50;36.90;;;;;;5037573;28;20064;-60
2021/06/14 13:07:59;;;;;;;7.75;2.40;;;24.50;37.30;;;;;;5037944;28;20045;-60